Olmstedville, NY (12857)

3:04 PM EST on November 23, 2014 (GMT -0500)
Goodnow flow | Change Station
CLOSE
Current Station
Personal Weather Station
Location: Newcomb, NY
Elevation: 1654 ft
Nearby Weather Stations

Elev 1654 ft 43.92 °N, 74.21 °W | Updated 44 seconds ago

Mostly Cloudy
Mostly Cloudy
39.4 °F
Feels Like 39 °F
N
0.0
Wind Variable Wind from WSW
Gusts 1.0 mph

Today
High -- | Low -- °F
--% Chance of Precip.
Yesterday
High -- | Low -- °F
Precip. -- in
7:01 AM 4:23 PM
New Moon, 2% visible
Pressure 30.03 in
Visibility 5.0 miles
Clouds Mostly Cloudy 1300 ft
Overcast 2000 ft
Windchill 39 °F
Dew Point 38 °F
Humidity 95%
Rainfall 0.07 in
Snow Depth Not available.
UV 0 out of 12
Pollen .10 out of 12
Air Quality Not available.
Flu Activity Not available.
METAR KSLK 231951Z AUTO 21004KT 5SM BR BKN013 OVC020 06/04 A2999 RMK AO2 SLP168 T00610044

More Conditions Fewer Conditions

Pressure 30.03 in
Visibility 5.0 miles
Clouds Mostly Cloudy 1300 ft
Overcast 2000 ft
Windchill 39 °F
Dew Point 38 °F
Humidity 95%
Rainfall 0.07 in
Snow Depth Not available.
UV 0 out of 12
Pollen .10 out of 12
Air Quality Not available.
Flu Activity Not available.
METAR KSLK 231951Z AUTO 21004KT 5SM BR BKN013 OVC020 06/04 A2999 RMK AO2 SLP168 T00610044

More Conditions Fewer Conditions

10-Day Weather Forecast

Almanac

Astronomy

Nov. 23, 2014 Rise Set
Actual Time
Civil Twilight
Nautical Twilight
Astronomical Twilight
Moon
Length of Visible Light
Length of Day
Tomorrow will be .
, % of the Moon is Illuminated

Today's Extremes

State Highs State Lows

Community

WunderPhotos

Upload Photos

1,773,167 photos uploaded!

WunderBlogs® & News

Nearby

Air Quality

  Air Quality AQ Index Pollutant
Not available.

Snow Depth

Station Depth Elevation

Earthquake Activity

City Distance Mag. Time & Date
Minimum magnitude displayed is 2.5.

Coastal Water Temperatures

Place Temperature

Nearby Weather Stations